sensor_id;sensor_type;location;lat;lon;timestamp;temperature;humidity
12481;DHT22;6305;48.398;11.762;2023-04-25T00:00:09;4.70;99.90
12481;DHT22;6305;48.398;11.762;2023-04-25T00:02:39;4.80;99.90
12481;DHT22;6305;48.398;11.762;2023-04-25T00:05:08;4.80;99.90
12481;DHT22;6305;48.398;11.762;2023-04-25T00:07:35;4.90;99.90
12481;DHT22;6305;48.398;11.762;2023-04-25T00:10:02;4.80;99.90
12481;DHT22;6305;48.398;11.762;2023-04-25T00:12:31;4.80;99.90
12481;DHT22;6305;48.398;11.762;2023-04-25T00:14:59;4.80;99.90
12481;DHT22;6305;48.398;11.762;2023-04-25T00:17:26;4.80;99.90
12481;DHT22;6305;48.398;11.762;2023-04-25T00:19:53;4.80;99.90
12481;DHT22;6305;48.398;11.762;2023-04-25T00:22:21;4.90;99.90
12481;DHT22;6305;48.398;11.762;2023-04-25T00:24:48;5.00;99.90
12481;DHT22;6305;48.398;11.762;2023-04-25T00:27:16;5.00;99.90
12481;DHT22;6305;48.398;11.762;2023-04-25T00:29:44;5.10;99.90
12481;DHT22;6305;48.398;11.762;2023-04-25T00:32:11;5.20;99.90
12481;DHT22;6305;48.398;11.762;2023-04-25T00:34:38;5.30;99.90
12481;DHT22;6305;48.398;11.762;2023-04-25T00:37:05;5.40;99.90
12481;DHT22;6305;48.398;11.762;2023-04-25T00:39:33;5.40;99.90
12481;DHT22;6305;48.398;11.762;2023-04-25T00:42:00;5.40;99.90
12481;DHT22;6305;48.398;11.762;2023-04-25T00:44:27;5.40;99.90
12481;DHT22;6305;48.398;11.762;2023-04-25T00:46:57;5.40;99.90
12481;DHT22;6305;48.398;11.762;2023-04-25T00:49:24;5.50;99.90
12481;DHT22;6305;48.398;11.762;2023-04-25T00:51:51;5.50;99.90
12481;DHT22;6305;48.398;11.762;2023-04-25T00:54:19;5.60;99.90
12481;DHT22;6305;48.398;11.762;2023-04-25T00:56:46;5.60;99.90
12481;DHT22;6305;48.398;11.762;2023-04-25T00:59:14;5.70;99.90
12481;DHT22;6305;48.398;11.762;2023-04-25T01:01:42;5.70;99.90
12481;DHT22;6305;48.398;11.762;2023-04-25T01:04:10;5.70;99.90
12481;DHT22;6305;48.398;11.762;2023-04-25T01:06:37;5.60;99.90
12481;DHT22;6305;48.398;11.762;2023-04-25T01:09:05;5.40;99.90
12481;DHT22;6305;48.398;11.762;2023-04-25T01:11:33;5.40;99.90
12481;DHT22;6305;48.398;11.762;2023-04-25T01:14:00;5.40;99.90
12481;DHT22;6305;48.398;11.762;2023-04-25T01:16:28;5.40;99.90
12481;DHT22;6305;48.398;11.762;2023-04-25T01:18:56;5.50;99.90
12481;DHT22;6305;48.398;11.762;2023-04-25T01:21:24;5.50;99.90
12481;DHT22;6305;48.398;11.762;2023-04-25T01:23:54;5.50;99.90
12481;DHT22;6305;48.398;11.762;2023-04-25T01:26:21;5.50;99.90
12481;DHT22;6305;48.398;11.762;2023-04-25T01:28:49;5.50;99.90
12481;DHT22;6305;48.398;11.762;2023-04-25T01:31:17;5.40;99.90
12481;DHT22;6305;48.398;11.762;2023-04-25T01:33:45;5.30;99.90
12481;DHT22;6305;48.398;11.762;2023-04-25T01:36:13;5.20;99.90
12481;DHT22;6305;48.398;11.762;2023-04-25T01:38:42;5.10;99.90
12481;DHT22;6305;48.398;11.762;2023-04-25T01:41:12;5.10;99.90
12481;DHT22;6305;48.398;11.762;2023-04-25T01:43:39;5.10;99.90
12481;DHT22;6305;48.398;11.762;2023-04-25T01:46:06;5.10;99.90
12481;DHT22;6305;48.398;11.762;2023-04-25T01:48:33;5.20;99.90
12481;DHT22;6305;48.398;11.762;2023-04-25T01:51:00;5.20;99.90
12481;DHT22;6305;48.398;11.762;2023-04-25T01:53:28;5.20;99.90
12481;DHT22;6305;48.398;11.762;2023-04-25T01:55:58;5.20;99.90
12481;DHT22;6305;48.398;11.762;2023-04-25T01:58:28;5.20;99.90
12481;DHT22;6305;48.398;11.762;2023-04-25T02:01:15;5.10;99.90
12481;DHT22;6305;48.398;11.762;2023-04-25T02:03:48;5.00;99.90
12481;DHT22;6305;48.398;11.762;2023-04-25T02:06:25;4.90;99.90
12481;DHT22;6305;48.398;11.762;2023-04-25T02:08:54;4.80;99.90
12481;DHT22;6305;48.398;11.762;2023-04-25T02:11:22;4.60;99.90
12481;DHT22;6305;48.398;11.762;2023-04-25T02:14:08;4.50;99.90
12481;DHT22;6305;48.398;11.762;2023-04-25T02:16:40;4.30;99.90
12481;DHT22;6305;48.398;11.762;2023-04-25T02:19:10;4.30;99.90
12481;DHT22;6305;48.398;11.762;2023-04-25T02:21:36;4.20;99.90
12481;DHT22;6305;48.398;11.762;2023-04-25T02:24:04;4.10;99.90
12481;DHT22;6305;48.398;11.762;2023-04-25T02:26:34;4.10;99.90
12481;DHT22;6305;48.398;11.762;2023-04-25T02:29:02;4.20;99.90
12481;DHT22;6305;48.398;11.762;2023-04-25T02:31:29;4.30;99.90
12481;DHT22;6305;48.398;11.762;2023-04-25T02:33:57;4.40;99.90
12481;DHT22;6305;48.398;11.762;2023-04-25T02:36:24;4.40;99.90
12481;DHT22;6305;48.398;11.762;2023-04-25T02:38:51;4.50;99.90
12481;DHT22;6305;48.398;11.762;2023-04-25T02:41:20;4.60;99.90
12481;DHT22;6305;48.398;11.762;2023-04-25T02:43:48;4.60;99.90
12481;DHT22;6305;48.398;11.762;2023-04-25T02:46:18;4.60;99.90
12481;DHT22;6305;48.398;11.762;2023-04-25T02:48:46;4.50;99.90
12481;DHT22;6305;48.398;11.762;2023-04-25T02:51:13;4.50;99.90
12481;DHT22;6305;48.398;11.762;2023-04-25T02:53:42;4.50;99.90
12481;DHT22;6305;48.398;11.762;2023-04-25T02:56:09;4.50;99.90
12481;DHT22;6305;48.398;11.762;2023-04-25T02:58:36;4.40;99.90
12481;DHT22;6305;48.398;11.762;2023-04-25T03:01:04;4.40;99.90
12481;DHT22;6305;48.398;11.762;2023-04-25T03:03:31;4.50;99.90
12481;DHT22;6305;48.398;11.762;2023-04-25T03:05:58;4.50;99.90
12481;DHT22;6305;48.398;11.762;2023-04-25T03:08:30;4.70;99.90
12481;DHT22;6305;48.398;11.762;2023-04-25T03:10:59;4.80;99.90
12481;DHT22;6305;48.398;11.762;2023-04-25T03:13:27;4.90;99.90
12481;DHT22;6305;48.398;11.762;2023-04-25T03:15:56;5.00;99.90
12481;DHT22;6305;48.398;11.762;2023-04-25T03:18:25;5.10;99.90
12481;DHT22;6305;48.398;11.762;2023-04-25T03:20:54;5.20;99.90
12481;DHT22;6305;48.398;11.762;2023-04-25T03:23:21;5.30;99.90
12481;DHT22;6305;48.398;11.762;2023-04-25T03:25:48;5.30;99.90
12481;DHT22;6305;48.398;11.762;2023-04-25T03:28:15;5.30;99.90
12481;DHT22;6305;48.398;11.762;2023-04-25T03:30:42;5.40;99.90
12481;DHT22;6305;48.398;11.762;2023-04-25T03:33:09;5.50;99.90
12481;DHT22;6305;48.398;11.762;2023-04-25T03:35:38;5.50;99.90
12481;DHT22;6305;48.398;11.762;2023-04-25T03:38:05;5.60;99.90
12481;DHT22;6305;48.398;11.762;2023-04-25T03:40:38;5.60;99.90
12481;DHT22;6305;48.398;11.762;2023-04-25T03:43:26;5.60;99.90
12481;DHT22;6305;48.398;11.762;2023-04-25T03:46:01;5.60;99.90
12481;DHT22;6305;48.398;11.762;2023-04-25T03:48:28;5.60;99.90
12481;DHT22;6305;48.398;11.762;2023-04-25T03:50:57;5.60;99.90
12481;DHT22;6305;48.398;11.762;2023-04-25T03:53:24;5.60;99.90
12481;DHT22;6305;48.398;11.762;2023-04-25T03:56:11;5.60;99.90
12481;DHT22;6305;48.398;11.762;2023-04-25T03:58:39;5.60;99.90
12481;DHT22;6305;48.398;11.762;2023-04-25T04:01:06;5.60;99.90
12481;DHT22;6305;48.398;11.762;2023-04-25T04:03:36;5.50;99.90
12481;DHT22;6305;48.398;11.762;2023-04-25T04:06:06;5.50;99.90
12481;DHT22;6305;48.398;11.762;2023-04-25T04:08:40;5.40;99.90
12481;DHT22;6305;48.398;11.762;2023-04-25T04:11:09;5.30;99.90
12481;DHT22;6305;48.398;11.762;2023-04-25T04:13:36;5.30;99.90
12481;DHT22;6305;48.398;11.762;2023-04-25T04:16:04;5.30;99.90
12481;DHT22;6305;48.398;11.762;2023-04-25T04:18:31;5.30;99.90
12481;DHT22;6305;48.398;11.762;2023-04-25T04:20:58;5.40;99.90
12481;DHT22;6305;48.398;11.762;2023-04-25T04:23:30;5.40;99.90
12481;DHT22;6305;48.398;11.762;2023-04-25T04:25:58;5.50;99.90
12481;DHT22;6305;48.398;11.762;2023-04-25T04:28:58;5.60;99.90
12481;DHT22;6305;48.398;11.762;2023-04-25T04:31:38;5.60;99.90
12481;DHT22;6305;48.398;11.762;2023-04-25T04:34:05;5.70;99.90
12481;DHT22;6305;48.398;11.762;2023-04-25T04:36:33;5.80;99.90
12481;DHT22;6305;48.398;11.762;2023-04-25T04:39:02;5.80;99.90
12481;DHT22;6305;48.398;11.762;2023-04-25T04:41:35;5.90;99.90
12481;DHT22;6305;48.398;11.762;2023-04-25T04:44:10;5.90;99.90
12481;DHT22;6305;48.398;11.762;2023-04-25T04:46:52;6.00;99.90
12481;DHT22;6305;48.398;11.762;2023-04-25T04:49:40;6.00;99.90
12481;DHT22;6305;48.398;11.762;2023-04-25T04:52:39;6.10;99.90
12481;DHT22;6305;48.398;11.762;2023-04-25T04:55:43;6.10;99.90
12481;DHT22;6305;48.398;11.762;2023-04-25T04:58:32;6.10;99.90
12481;DHT22;6305;48.398;11.762;2023-04-25T05:01:13;6.20;99.90
12481;DHT22;6305;48.398;11.762;2023-04-25T05:03:55;6.20;99.90
12481;DHT22;6305;48.398;11.762;2023-04-25T05:06:45;6.30;99.90
12481;DHT22;6305;48.398;11.762;2023-04-25T05:09:23;6.40;99.90
12481;DHT22;6305;48.398;11.762;2023-04-25T05:12:18;6.60;99.90
12481;DHT22;6305;48.398;11.762;2023-04-25T05:14:54;6.80;99.90
12481;DHT22;6305;48.398;11.762;2023-04-25T05:17:39;7.10;99.90
12481;DHT22;6305;48.398;11.762;2023-04-25T05:20:25;7.40;99.90
12481;DHT22;6305;48.398;11.762;2023-04-25T05:22:55;7.80;99.90
12481;DHT22;6305;48.398;11.762;2023-04-25T05:25:36;8.00;99.90
12481;DHT22;6305;48.398;11.762;2023-04-25T05:28:19;8.10;99.90
12481;DHT22;6305;48.398;11.762;2023-04-25T05:31:13;8.10;99.90
12481;DHT22;6305;48.398;11.762;2023-04-25T05:34:02;8.00;99.90
12481;DHT22;6305;48.398;11.762;2023-04-25T05:36:40;7.80;99.90
12481;DHT22;6305;48.398;11.762;2023-04-25T05:39:06;7.70;99.90
12481;DHT22;6305;48.398;11.762;2023-04-25T05:41:52;7.70;99.90
12481;DHT22;6305;48.398;11.762;2023-04-25T05:44:39;7.60;99.90
12481;DHT22;6305;48.398;11.762;2023-04-25T05:47:19;7.60;99.90
12481;DHT22;6305;48.398;11.762;2023-04-25T05:50:02;7.70;99.90
12481;DHT22;6305;48.398;11.762;2023-04-25T05:52:59;7.70;99.90
12481;DHT22;6305;48.398;11.762;2023-04-25T05:55:31;7.90;99.90
12481;DHT22;6305;48.398;11.762;2023-04-25T05:58:01;8.00;99.90
12481;DHT22;6305;48.398;11.762;2023-04-25T06:00:29;8.30;99.90
12481;DHT22;6305;48.398;11.762;2023-04-25T06:02:56;8.60;99.90
12481;DHT22;6305;48.398;11.762;2023-04-25T06:05:23;8.80;99.90
12481;DHT22;6305;48.398;11.762;2023-04-25T06:07:50;8.90;99.90
12481;DHT22;6305;48.398;11.762;2023-04-25T06:10:17;9.00;99.90
12481;DHT22;6305;48.398;11.762;2023-04-25T06:12:44;9.10;99.90
12481;DHT22;6305;48.398;11.762;2023-04-25T06:15:14;9.10;99.90
12481;DHT22;6305;48.398;11.762;2023-04-25T06:17:43;9.00;99.90
12481;DHT22;6305;48.398;11.762;2023-04-25T06:20:10;8.80;99.90
12481;DHT22;6305;48.398;11.762;2023-04-25T06:22:39;8.60;99.90
12481;DHT22;6305;48.398;11.762;2023-04-25T06:25:07;8.50;99.90
12481;DHT22;6305;48.398;11.762;2023-04-25T06:27:34;8.70;99.90
12481;DHT22;6305;48.398;11.762;2023-04-25T06:30:02;9.30;99.90
12481;DHT22;6305;48.398;11.762;2023-04-25T06:32:31;10.20;99.90
12481;DHT22;6305;48.398;11.762;2023-04-25T06:35:01;10.60;99.90
12481;DHT22;6305;48.398;11.762;2023-04-25T06:37:29;10.40;99.90
12481;DHT22;6305;48.398;11.762;2023-04-25T06:39:56;10.10;99.90
12481;DHT22;6305;48.398;11.762;2023-04-25T06:42:23;9.70;99.90
12481;DHT22;6305;48.398;11.762;2023-04-25T06:44:55;9.20;99.90
12481;DHT22;6305;48.398;11.762;2023-04-25T06:47:22;8.70;99.90
12481;DHT22;6305;48.398;11.762;2023-04-25T06:49:50;8.40;99.90
12481;DHT22;6305;48.398;11.762;2023-04-25T06:52:18;8.10;99.90
12481;DHT22;6305;48.398;11.762;2023-04-25T06:54:47;7.90;99.90
12481;DHT22;6305;48.398;11.762;2023-04-25T06:57:37;7.60;99.90
12481;DHT22;6305;48.398;11.762;2023-04-25T07:00:24;7.20;99.90
12481;DHT22;6305;48.398;11.762;2023-04-25T07:02:52;6.90;99.90
12481;DHT22;6305;48.398;11.762;2023-04-25T07:05:19;6.60;99.90
12481;DHT22;6305;48.398;11.762;2023-04-25T07:07:48;6.30;99.90
12481;DHT22;6305;48.398;11.762;2023-04-25T07:10:15;6.20;99.90
12481;DHT22;6305;48.398;11.762;2023-04-25T07:12:42;6.10;99.90
12481;DHT22;6305;48.398;11.762;2023-04-25T07:15:10;6.00;99.90
12481;DHT22;6305;48.398;11.762;2023-04-25T07:17:39;6.10;99.90
12481;DHT22;6305;48.398;11.762;2023-04-25T07:20:07;6.30;99.90
12481;DHT22;6305;48.398;11.762;2023-04-25T07:22:36;6.60;99.90
12481;DHT22;6305;48.398;11.762;2023-04-25T07:25:06;7.00;99.90
12481;DHT22;6305;48.398;11.762;2023-04-25T07:27:34;7.60;99.90
12481;DHT22;6305;48.398;11.762;2023-04-25T07:30:14;9.10;99.90
12481;DHT22;6305;48.398;11.762;2023-04-25T07:32:41;10.00;99.90
12481;DHT22;6305;48.398;11.762;2023-04-25T07:35:08;10.00;99.90
12481;DHT22;6305;48.398;11.762;2023-04-25T07:37:36;10.00;99.90
12481;DHT22;6305;48.398;11.762;2023-04-25T07:40:16;9.80;99.90
12481;DHT22;6305;48.398;11.762;2023-04-25T07:42:52;9.70;99.90
12481;DHT22;6305;48.398;11.762;2023-04-25T07:45:27;9.90;99.90
12481;DHT22;6305;48.398;11.762;2023-04-25T07:47:54;10.50;99.90
12481;DHT22;6305;48.398;11.762;2023-04-25T07:50:21;11.00;99.90
12481;DHT22;6305;48.398;11.762;2023-04-25T07:52:48;11.80;99.90
12481;DHT22;6305;48.398;11.762;2023-04-25T07:55:24;12.40;99.90
12481;DHT22;6305;48.398;11.762;2023-04-25T07:57:59;11.90;99.90
12481;DHT22;6305;48.398;11.762;2023-04-25T08:00:29;13.30;99.90
12481;DHT22;6305;48.398;11.762;2023-04-25T08:03:16;13.50;99.90
12481;DHT22;6305;48.398;11.762;2023-04-25T08:05:43;16.10;99.90
12481;DHT22;6305;48.398;11.762;2023-04-25T08:08:12;18.20;99.90
12481;DHT22;6305;48.398;11.762;2023-04-25T08:10:41;19.90;99.60
12481;DHT22;6305;48.398;11.762;2023-04-25T08:13:08;21.40;92.70
12481;DHT22;6305;48.398;11.762;2023-04-25T08:15:36;22.60;80.20
12481;DHT22;6305;48.398;11.762;2023-04-25T08:18:03;22.70;68.40
12481;DHT22;6305;48.398;11.762;2023-04-25T08:20:31;22.00;64.60
12481;DHT22;6305;48.398;11.762;2023-04-25T08:23:00;22.40;66.20
12481;DHT22;6305;48.398;11.762;2023-04-25T08:25:51;23.40;64.80
12481;DHT22;6305;48.398;11.762;2023-04-25T08:28:22;24.60;59.00
12481;DHT22;6305;48.398;11.762;2023-04-25T08:30:49;23.50;57.60
12481;DHT22;6305;48.398;11.762;2023-04-25T08:33:18;24.30;55.70
12481;DHT22;6305;48.398;11.762;2023-04-25T08:35:58;24.00;52.10
12481;DHT22;6305;48.398;11.762;2023-04-25T08:38:26;21.40;52.30
12481;DHT22;6305;48.398;11.762;2023-04-25T08:40:54;18.90;54.10
12481;DHT22;6305;48.398;11.762;2023-04-25T08:43:23;19.30;58.90
12481;DHT22;6305;48.398;11.762;2023-04-25T08:45:53;21.00;58.20
12481;DHT22;6305;48.398;11.762;2023-04-25T08:48:50;21.60;57.20
12481;DHT22;6305;48.398;11.762;2023-04-25T08:51:22;22.00;55.90
12481;DHT22;6305;48.398;11.762;2023-04-25T08:53:52;23.80;53.20
12481;DHT22;6305;48.398;11.762;2023-04-25T08:56:21;22.40;48.30
12481;DHT22;6305;48.398;11.762;2023-04-25T08:58:49;20.50;49.30
12481;DHT22;6305;48.398;11.762;2023-04-25T09:01:17;18.80;51.90
12481;DHT22;6305;48.398;11.762;2023-04-25T09:03:50;16.90;53.60
12481;DHT22;6305;48.398;11.762;2023-04-25T09:06:18;14.70;59.10
12481;DHT22;6305;48.398;11.762;2023-04-25T09:08:50;13.00;71.70
12481;DHT22;6305;48.398;11.762;2023-04-25T09:11:18;11.30;92.80
12481;DHT22;6305;48.398;11.762;2023-04-25T09:13:47;10.20;99.90
12481;DHT22;6305;48.398;11.762;2023-04-25T09:16:22;9.50;99.90
12481;DHT22;6305;48.398;11.762;2023-04-25T09:19:21;9.00;99.90
12481;DHT22;6305;48.398;11.762;2023-04-25T09:21:49;8.70;99.90
12481;DHT22;6305;48.398;11.762;2023-04-25T09:24:16;8.80;99.90
12481;DHT22;6305;48.398;11.762;2023-04-25T09:26:46;9.00;99.90
12481;DHT22;6305;48.398;11.762;2023-04-25T09:29:15;9.90;99.90
12481;DHT22;6305;48.398;11.762;2023-04-25T09:31:42;11.40;99.90
12481;DHT22;6305;48.398;11.762;2023-04-25T09:34:10;12.90;99.90
12481;DHT22;6305;48.398;11.762;2023-04-25T09:36:44;13.70;99.90
12481;DHT22;6305;48.398;11.762;2023-04-25T09:39:32;14.60;99.90
12481;DHT22;6305;48.398;11.762;2023-04-25T09:42:09;15.20;99.90
12481;DHT22;6305;48.398;11.762;2023-04-25T09:44:42;15.50;99.90
12481;DHT22;6305;48.398;11.762;2023-04-25T09:47:10;15.80;99.90
12481;DHT22;6305;48.398;11.762;2023-04-25T09:49:40;15.80;93.70
12481;DHT22;6305;48.398;11.762;2023-04-25T09:52:14;14.70;88.50
12481;DHT22;6305;48.398;11.762;2023-04-25T09:55:04;13.50;94.10
12481;DHT22;6305;48.398;11.762;2023-04-25T09:57:34;12.60;97.40
12481;DHT22;6305;48.398;11.762;2023-04-25T10:00:07;13.10;99.90
12481;DHT22;6305;48.398;11.762;2023-04-25T10:02:42;14.30;99.90
12481;DHT22;6305;48.398;11.762;2023-04-25T10:05:30;15.90;99.90
12481;DHT22;6305;48.398;11.762;2023-04-25T10:08:00;16.90;97.60
12481;DHT22;6305;48.398;11.762;2023-04-25T10:10:30;17.20;81.00
12481;DHT22;6305;48.398;11.762;2023-04-25T10:13:03;17.70;67.50
12481;DHT22;6305;48.398;11.762;2023-04-25T10:15:34;17.80;65.10
12481;DHT22;6305;48.398;11.762;2023-04-25T10:18:02;19.00;63.50
12481;DHT22;6305;48.398;11.762;2023-04-25T10:20:30;19.00;56.20
12481;DHT22;6305;48.398;11.762;2023-04-25T10:23:03;18.80;55.60
12481;DHT22;6305;48.398;11.762;2023-04-25T10:25:33;19.20;55.10
12481;DHT22;6305;48.398;11.762;2023-04-25T10:28:03;18.40;53.10
12481;DHT22;6305;48.398;11.762;2023-04-25T10:30:32;17.60;55.10
12481;DHT22;6305;48.398;11.762;2023-04-25T10:33:00;17.30;54.60
12481;DHT22;6305;48.398;11.762;2023-04-25T10:35:28;17.00;54.90
12481;DHT22;6305;48.398;11.762;2023-04-25T10:38:06;17.40;55.00
12481;DHT22;6305;48.398;11.762;2023-04-25T10:40:35;18.10;55.80
12481;DHT22;6305;48.398;11.762;2023-04-25T10:46:22;17.90;54.20
12481;DHT22;6305;48.398;11.762;2023-04-25T10:48:52;17.80;54.10
12481;DHT22;6305;48.398;11.762;2023-04-25T10:51:22;17.40;54.10
12481;DHT22;6305;48.398;11.762;2023-04-25T10:54:00;16.50;55.20
12481;DHT22;6305;48.398;11.762;2023-04-25T10:56:28;14.30;67.60
12481;DHT22;6305;48.398;11.762;2023-04-25T10:59:06;12.50;92.70
12481;DHT22;6305;48.398;11.762;2023-04-25T11:01:39;11.40;99.90
12481;DHT22;6305;48.398;11.762;2023-04-25T11:04:20;10.90;99.90
12481;DHT22;6305;48.398;11.762;2023-04-25T11:07:03;10.80;99.90
12481;DHT22;6305;48.398;11.762;2023-04-25T11:09:32;10.90;99.90
12481;DHT22;6305;48.398;11.762;2023-04-25T11:12:00;11.10;99.90
12481;DHT22;6305;48.398;11.762;2023-04-25T11:14:27;11.40;99.90
12481;DHT22;6305;48.398;11.762;2023-04-25T11:16:57;11.70;99.90
12481;DHT22;6305;48.398;11.762;2023-04-25T11:19:27;11.70;99.90
12481;DHT22;6305;48.398;11.762;2023-04-25T11:21:55;11.10;99.90
12481;DHT22;6305;48.398;11.762;2023-04-25T11:24:25;10.40;99.90
12481;DHT22;6305;48.398;11.762;2023-04-25T11:26:52;9.70;99.90
12481;DHT22;6305;48.398;11.762;2023-04-25T11:29:22;9.40;99.90
12481;DHT22;6305;48.398;11.762;2023-04-25T11:31:49;9.30;99.90
12481;DHT22;6305;48.398;11.762;2023-04-25T11:34:18;9.50;99.90
12481;DHT22;6305;48.398;11.762;2023-04-25T11:36:46;9.70;99.90
12481;DHT22;6305;48.398;11.762;2023-04-25T11:39:13;10.10;99.90
12481;DHT22;6305;48.398;11.762;2023-04-25T11:41:41;10.40;99.90
12481;DHT22;6305;48.398;11.762;2023-04-25T11:44:08;10.40;99.90
12481;DHT22;6305;48.398;11.762;2023-04-25T11:46:35;10.50;99.90
12481;DHT22;6305;48.398;11.762;2023-04-25T11:49:02;10.70;99.90
12481;DHT22;6305;48.398;11.762;2023-04-25T11:51:38;10.70;99.90
12481;DHT22;6305;48.398;11.762;2023-04-25T11:54:05;10.50;99.90
12481;DHT22;6305;48.398;11.762;2023-04-25T11:56:32;10.20;99.90
12481;DHT22;6305;48.398;11.762;2023-04-25T11:59:00;10.00;99.90
12481;DHT22;6305;48.398;11.762;2023-04-25T12:01:29;9.60;99.90
12481;DHT22;6305;48.398;11.762;2023-04-25T12:03:56;9.10;99.90
12481;DHT22;6305;48.398;11.762;2023-04-25T12:06:26;8.80;99.90
12481;DHT22;6305;48.398;11.762;2023-04-25T12:09:02;8.50;99.90
12481;DHT22;6305;48.398;11.762;2023-04-25T12:11:30;8.10;99.90
12481;DHT22;6305;48.398;11.762;2023-04-25T12:14:02;7.80;99.90
12481;DHT22;6305;48.398;11.762;2023-04-25T12:16:29;7.50;99.90
12481;DHT22;6305;48.398;11.762;2023-04-25T12:18:56;7.30;99.90
12481;DHT22;6305;48.398;11.762;2023-04-25T12:21:28;7.10;99.90
12481;DHT22;6305;48.398;11.762;2023-04-25T12:23:56;7.10;99.90
12481;DHT22;6305;48.398;11.762;2023-04-25T12:26:24;7.00;99.90
12481;DHT22;6305;48.398;11.762;2023-04-25T12:28:52;7.00;99.90
12481;DHT22;6305;48.398;11.762;2023-04-25T12:31:19;7.10;99.90
12481;DHT22;6305;48.398;11.762;2023-04-25T12:33:46;7.10;99.90
12481;DHT22;6305;48.398;11.762;2023-04-25T12:36:13;7.00;99.90
12481;DHT22;6305;48.398;11.762;2023-04-25T12:38:42;7.00;99.90
12481;DHT22;6305;48.398;11.762;2023-04-25T12:41:09;7.00;99.90
12481;DHT22;6305;48.398;11.762;2023-04-25T12:43:38;6.90;99.90
12481;DHT22;6305;48.398;11.762;2023-04-25T12:46:05;6.90;99.90
12481;DHT22;6305;48.398;11.762;2023-04-25T12:48:32;7.00;99.90
12481;DHT22;6305;48.398;11.762;2023-04-25T12:50:58;7.00;99.90
12481;DHT22;6305;48.398;11.762;2023-04-25T12:53:25;7.10;99.90
12481;DHT22;6305;48.398;11.762;2023-04-25T12:55:52;7.30;99.90
12481;DHT22;6305;48.398;11.762;2023-04-25T12:58:19;7.40;99.90
12481;DHT22;6305;48.398;11.762;2023-04-25T13:00:47;7.60;99.90
12481;DHT22;6305;48.398;11.762;2023-04-25T13:03:15;7.70;99.90
12481;DHT22;6305;48.398;11.762;2023-04-25T13:05:42;7.90;99.90
12481;DHT22;6305;48.398;11.762;2023-04-25T13:08:09;8.00;99.90
12481;DHT22;6305;48.398;11.762;2023-04-25T13:10:36;8.10;99.90
12481;DHT22;6305;48.398;11.762;2023-04-25T13:13:04;8.10;99.90
12481;DHT22;6305;48.398;11.762;2023-04-25T13:15:32;8.10;99.90
12481;DHT22;6305;48.398;11.762;2023-04-25T13:18:00;8.10;99.90
12481;DHT22;6305;48.398;11.762;2023-04-25T13:20:27;8.20;99.90
12481;DHT22;6305;48.398;11.762;2023-04-25T13:22:54;8.30;99.90
12481;DHT22;6305;48.398;11.762;2023-04-25T13:25:21;8.40;99.90
12481;DHT22;6305;48.398;11.762;2023-04-25T13:27:48;8.40;99.90
12481;DHT22;6305;48.398;11.762;2023-04-25T13:30:15;8.40;99.90
12481;DHT22;6305;48.398;11.762;2023-04-25T13:32:43;8.30;99.90
12481;DHT22;6305;48.398;11.762;2023-04-25T13:35:12;8.40;99.90
12481;DHT22;6305;48.398;11.762;2023-04-25T13:37:40;8.50;99.90
12481;DHT22;6305;48.398;11.762;2023-04-25T13:40:09;8.50;99.90
12481;DHT22;6305;48.398;11.762;2023-04-25T13:42:37;8.60;99.90
12481;DHT22;6305;48.398;11.762;2023-04-25T13:45:06;8.70;99.90
12481;DHT22;6305;48.398;11.762;2023-04-25T13:47:34;9.00;99.90
12481;DHT22;6305;48.398;11.762;2023-04-25T13:50:01;9.10;99.90
12481;DHT22;6305;48.398;11.762;2023-04-25T13:52:31;8.90;99.90
12481;DHT22;6305;48.398;11.762;2023-04-25T13:54:58;8.70;99.90
12481;DHT22;6305;48.398;11.762;2023-04-25T13:57:25;8.60;99.90
12481;DHT22;6305;48.398;11.762;2023-04-25T13:59:53;8.40;99.90
12481;DHT22;6305;48.398;11.762;2023-04-25T14:02:20;8.30;99.90
12481;DHT22;6305;48.398;11.762;2023-04-25T14:04:47;8.20;99.90
12481;DHT22;6305;48.398;11.762;2023-04-25T14:07:14;8.10;99.90
12481;DHT22;6305;48.398;11.762;2023-04-25T14:09:44;8.10;99.90
12481;DHT22;6305;48.398;11.762;2023-04-25T14:12:11;7.90;99.90
12481;DHT22;6305;48.398;11.762;2023-04-25T14:14:37;7.80;99.90
12481;DHT22;6305;48.398;11.762;2023-04-25T14:17:04;7.70;99.90
12481;DHT22;6305;48.398;11.762;2023-04-25T14:19:32;7.70;99.90
12481;DHT22;6305;48.398;11.762;2023-04-25T14:21:59;7.70;99.90
12481;DHT22;6305;48.398;11.762;2023-04-25T14:24:27;7.80;99.90
12481;DHT22;6305;48.398;11.762;2023-04-25T14:26:55;7.80;99.90
12481;DHT22;6305;48.398;11.762;2023-04-25T14:29:22;7.90;99.90
12481;DHT22;6305;48.398;11.762;2023-04-25T14:31:49;8.10;99.90
12481;DHT22;6305;48.398;11.762;2023-04-25T14:34:16;8.30;99.90
12481;DHT22;6305;48.398;11.762;2023-04-25T14:36:43;8.60;99.90
12481;DHT22;6305;48.398;11.762;2023-04-25T14:39:13;8.80;99.90
12481;DHT22;6305;48.398;11.762;2023-04-25T14:41:41;9.00;99.90
12481;DHT22;6305;48.398;11.762;2023-04-25T14:44:09;9.20;99.90
12481;DHT22;6305;48.398;11.762;2023-04-25T14:46:36;9.30;99.90
12481;DHT22;6305;48.398;11.762;2023-04-25T14:49:03;9.40;99.90
12481;DHT22;6305;48.398;11.762;2023-04-25T14:51:30;9.40;99.90
12481;DHT22;6305;48.398;11.762;2023-04-25T14:53:57;9.30;99.90
12481;DHT22;6305;48.398;11.762;2023-04-25T14:56:24;9.20;99.90
12481;DHT22;6305;48.398;11.762;2023-04-25T14:58:52;9.00;99.90
12481;DHT22;6305;48.398;11.762;2023-04-25T15:01:20;8.90;99.90
12481;DHT22;6305;48.398;11.762;2023-04-25T15:03:48;8.70;99.90
12481;DHT22;6305;48.398;11.762;2023-04-25T15:06:15;8.70;99.90
12481;DHT22;6305;48.398;11.762;2023-04-25T15:08:42;8.70;99.90
12481;DHT22;6305;48.398;11.762;2023-04-25T15:11:09;8.60;99.90
12481;DHT22;6305;48.398;11.762;2023-04-25T15:13:36;8.50;99.90
12481;DHT22;6305;48.398;11.762;2023-04-25T15:16:04;8.50;99.90
12481;DHT22;6305;48.398;11.762;2023-04-25T15:18:32;8.40;99.90
12481;DHT22;6305;48.398;11.762;2023-04-25T15:20:59;8.50;99.90
12481;DHT22;6305;48.398;11.762;2023-04-25T15:23:26;8.50;99.90
12481;DHT22;6305;48.398;11.762;2023-04-25T15:25:53;8.50;99.90
12481;DHT22;6305;48.398;11.762;2023-04-25T15:28:20;8.40;99.90
12481;DHT22;6305;48.398;11.762;2023-04-25T15:30:47;8.20;99.90
12481;DHT22;6305;48.398;11.762;2023-04-25T15:33:15;8.00;99.90
12481;DHT22;6305;48.398;11.762;2023-04-25T15:35:44;7.80;99.90
12481;DHT22;6305;48.398;11.762;2023-04-25T15:38:11;7.70;99.90
12481;DHT22;6305;48.398;11.762;2023-04-25T15:40:39;7.50;99.90
12481;DHT22;6305;48.398;11.762;2023-04-25T15:43:06;7.50;99.90
12481;DHT22;6305;48.398;11.762;2023-04-25T15:45:40;7.40;99.90
12481;DHT22;6305;48.398;11.762;2023-04-25T15:48:07;7.30;99.90
12481;DHT22;6305;48.398;11.762;2023-04-25T15:50:34;7.30;99.90
12481;DHT22;6305;48.398;11.762;2023-04-25T15:53:03;7.20;99.90
12481;DHT22;6305;48.398;11.762;2023-04-25T15:55:30;7.30;99.90
12481;DHT22;6305;48.398;11.762;2023-04-25T15:57:58;7.20;99.90
12481;DHT22;6305;48.398;11.762;2023-04-25T16:00:26;7.40;99.90
12481;DHT22;6305;48.398;11.762;2023-04-25T16:02:53;7.60;99.90
12481;DHT22;6305;48.398;11.762;2023-04-25T16:05:20;7.80;99.90